sensor_id;sensor_type;location;lat;lon;timestamp;pressure;altitude;pressure_sealevel;temperature;humidity
55217;BME280;41086;46.736;15.666;2023-03-21T00:00:43;98630.41;;;6.84;100.00
55217;BME280;41086;46.736;15.666;2023-03-21T00:03:10;98633.91;;;6.84;100.00
55217;BME280;41086;46.736;15.666;2023-03-21T00:05:41;98627.09;;;6.80;100.00
55217;BME280;41086;46.736;15.666;2023-03-21T00:08:08;98617.66;;;6.76;100.00
55217;BME280;41086;46.736;15.666;2023-03-21T00:10:35;98631.66;;;6.77;100.00
55217;BME280;41086;46.736;15.666;2023-03-21T00:13:22;98619.09;;;6.64;100.00
55217;BME280;41086;46.736;15.666;2023-03-21T00:15:49;98624.22;;;6.33;100.00
55217;BME280;41086;46.736;15.666;2023-03-21T00:18:36;98623.19;;;5.99;100.00
55217;BME280;41086;46.736;15.666;2023-03-21T00:21:09;98612.03;;;5.94;100.00
55217;BME280;41086;46.736;15.666;2023-03-21T00:23:57;98606.25;;;6.05;100.00
55217;BME280;41086;46.736;15.666;2023-03-21T00:26:24;98610.03;;;5.99;100.00
55217;BME280;41086;46.736;15.666;2023-03-21T00:28:51;98601.25;;;6.00;100.00
55217;BME280;41086;46.736;15.666;2023-03-21T00:31:19;98603.94;;;5.98;100.00
55217;BME280;41086;46.736;15.666;2023-03-21T00:33:48;98597.44;;;5.87;100.00
55217;BME280;41086;46.736;15.666;2023-03-21T00:36:15;98594.03;;;6.04;100.00
55217;BME280;41086;46.736;15.666;2023-03-21T00:38:42;98588.63;;;6.07;100.00
55217;BME280;41086;46.736;15.666;2023-03-21T00:41:10;98595.09;;;5.99;100.00
55217;BME280;41086;46.736;15.666;2023-03-21T00:43:57;98587.78;;;6.06;100.00
55217;BME280;41086;46.736;15.666;2023-03-21T00:46:23;98591.94;;;6.10;100.00
55217;BME280;41086;46.736;15.666;2023-03-21T00:48:55;98592.19;;;6.06;100.00
55217;BME280;41086;46.736;15.666;2023-03-21T00:51:23;98596.19;;;5.76;100.00
55217;BME280;41086;46.736;15.666;2023-03-21T00:53:55;98597.13;;;5.57;100.00
55217;BME280;41086;46.736;15.666;2023-03-21T00:56:25;98591.47;;;5.45;100.00
55217;BME280;41086;46.736;15.666;2023-03-21T00:58:52;98580.34;;;5.40;100.00
55217;BME280;41086;46.736;15.666;2023-03-21T01:01:19;98563.72;;;5.40;100.00
55217;BME280;41086;46.736;15.666;2023-03-21T01:03:45;98581.44;;;5.72;100.00
55217;BME280;41086;46.736;15.666;2023-03-21T01:06:19;98578.56;;;5.97;100.00
55217;BME280;41086;46.736;15.666;2023-03-21T01:08:47;98577.88;;;6.11;100.00
55217;BME280;41086;46.736;15.666;2023-03-21T01:11:22;98582.38;;;6.27;100.00
55217;BME280;41086;46.736;15.666;2023-03-21T01:13:50;98532.16;;;6.14;100.00
55217;BME280;41086;46.736;15.666;2023-03-21T01:16:27;98584.50;;;6.55;100.00
55217;BME280;41086;46.736;15.666;2023-03-21T01:18:55;98586.88;;;6.59;100.00
55217;BME280;41086;46.736;15.666;2023-03-21T01:21:22;98590.16;;;6.47;100.00
55217;BME280;41086;46.736;15.666;2023-03-21T01:23:49;98585.72;;;6.30;100.00
55217;BME280;41086;46.736;15.666;2023-03-21T01:26:16;98588.69;;;6.05;100.00
55217;BME280;41086;46.736;15.666;2023-03-21T01:28:43;98582.19;;;5.95;100.00
55217;BME280;41086;46.736;15.666;2023-03-21T01:31:12;98582.56;;;6.05;100.00
55217;BME280;41086;46.736;15.666;2023-03-21T01:33:40;98588.94;;;6.18;100.00
55217;BME280;41086;46.736;15.666;2023-03-21T01:36:16;98594.53;;;6.29;100.00
55217;BME280;41086;46.736;15.666;2023-03-21T01:38:49;98593.47;;;6.33;100.00
55217;BME280;41086;46.736;15.666;2023-03-21T01:41:24;98601.16;;;6.38;100.00
55217;BME280;41086;46.736;15.666;2023-03-21T01:44:16;98592.16;;;6.42;100.00
55217;BME280;41086;46.736;15.666;2023-03-21T01:46:46;98599.13;;;6.43;100.00
55217;BME280;41086;46.736;15.666;2023-03-21T01:49:58;98583.78;;;6.34;100.00
55217;BME280;41086;46.736;15.666;2023-03-21T01:52:36;98592.47;;;6.36;100.00
55217;BME280;41086;46.736;15.666;2023-03-21T01:55:12;98583.00;;;6.32;100.00
55217;BME280;41086;46.736;15.666;2023-03-21T01:57:48;98580.75;;;6.24;100.00
55217;BME280;41086;46.736;15.666;2023-03-21T02:00:38;98571.69;;;6.12;100.00
55217;BME280;41086;46.736;15.666;2023-03-21T02:03:20;98559.22;;;5.98;100.00
55217;BME280;41086;46.736;15.666;2023-03-21T02:06:48;98573.78;;;6.23;100.00
55217;BME280;41086;46.736;15.666;2023-03-21T02:09:37;98571.84;;;6.27;100.00
55217;BME280;41086;46.736;15.666;2023-03-21T02:12:13;98566.03;;;6.20;100.00
55217;BME280;41086;46.736;15.666;2023-03-21T02:14:45;98552.00;;;6.02;100.00
55217;BME280;41086;46.736;15.666;2023-03-21T02:28:45;98558.69;;;6.09;100.00
55217;BME280;41086;46.736;15.666;2023-03-21T02:39:14;98547.16;;;6.12;100.00
55217;BME280;41086;46.736;15.666;2023-03-21T02:42:02;98548.41;;;6.22;100.00
55217;BME280;41086;46.736;15.666;2023-03-21T02:44:43;98545.41;;;6.30;100.00
55217;BME280;41086;46.736;15.666;2023-03-21T02:47:17;98545.78;;;6.39;100.00
55217;BME280;41086;46.736;15.666;2023-03-21T02:49:54;98551.44;;;6.49;100.00
55217;BME280;41086;46.736;15.666;2023-03-21T02:52:25;98536.94;;;6.40;100.00
55217;BME280;41086;46.736;15.666;2023-03-21T02:55:12;98544.59;;;6.45;100.00
55217;BME280;41086;46.736;15.666;2023-03-21T02:57:56;98548.34;;;6.41;100.00
55217;BME280;41086;46.736;15.666;2023-03-21T03:00:37;98552.13;;;6.35;100.00
55217;BME280;41086;46.736;15.666;2023-03-21T03:03:05;98554.38;;;6.26;100.00
55217;BME280;41086;46.736;15.666;2023-03-21T03:05:50;98554.44;;;6.24;100.00
55217;BME280;41086;46.736;15.666;2023-03-21T03:08:30;98550.16;;;6.21;100.00
55217;BME280;41086;46.736;15.666;2023-03-21T03:11:23;98542.69;;;6.14;100.00
55217;BME280;41086;46.736;15.666;2023-03-21T03:17:38;98550.72;;;6.11;100.00
55217;BME280;41086;46.736;15.666;2023-03-21T03:20:17;98556.06;;;6.09;100.00
55217;BME280;41086;46.736;15.666;2023-03-21T03:23:37;98551.94;;;6.04;100.00
55217;BME280;41086;46.736;15.666;2023-03-21T03:25:46;98551.00;;;6.05;100.00
55217;BME280;41086;46.736;15.666;2023-03-21T03:28:29;98540.16;;;5.93;100.00
55217;BME280;41086;46.736;15.666;2023-03-21T03:30:58;98550.47;;;5.98;100.00
55217;BME280;41086;46.736;15.666;2023-03-21T03:33:45;98559.47;;;5.92;100.00
55217;BME280;41086;46.736;15.666;2023-03-21T03:36:19;98561.47;;;5.87;100.00
55217;BME280;41086;46.736;15.666;2023-03-21T03:39:03;98566.03;;;5.84;100.00
55217;BME280;41086;46.736;15.666;2023-03-21T03:41:37;98549.78;;;5.75;100.00
55217;BME280;41086;46.736;15.666;2023-03-21T03:44:31;98546.13;;;5.78;100.00
55217;BME280;41086;46.736;15.666;2023-03-21T03:47:06;98553.66;;;5.86;100.00
55217;BME280;41086;46.736;15.666;2023-03-21T03:49:41;98556.78;;;5.94;100.00
55217;BME280;41086;46.736;15.666;2023-03-21T03:52:36;98558.41;;;5.96;100.00
55217;BME280;41086;46.736;15.666;2023-03-21T03:55:19;98563.25;;;5.87;100.00
55217;BME280;41086;46.736;15.666;2023-03-21T03:57:49;98562.69;;;5.80;100.00
55217;BME280;41086;46.736;15.666;2023-03-21T04:00:18;98565.91;;;5.68;100.00
55217;BME280;41086;46.736;15.666;2023-03-21T04:02:48;98568.75;;;5.63;100.00
55217;BME280;41086;46.736;15.666;2023-03-21T04:05:19;98574.06;;;5.62;100.00
55217;BME280;41086;46.736;15.666;2023-03-21T04:07:47;98575.09;;;5.59;100.00
55217;BME280;41086;46.736;15.666;2023-03-21T04:10:19;98578.63;;;5.58;100.00
55217;BME280;41086;46.736;15.666;2023-03-21T04:12:46;98571.38;;;5.63;100.00
55217;BME280;41086;46.736;15.666;2023-03-21T04:15:33;98576.13;;;5.74;100.00
55217;BME280;41086;46.736;15.666;2023-03-21T04:18:08;98568.66;;;5.84;100.00
55217;BME280;41086;46.736;15.666;2023-03-21T04:20:34;98568.44;;;5.88;100.00
55217;BME280;41086;46.736;15.666;2023-03-21T04:23:05;98568.88;;;5.79;100.00
55217;BME280;41086;46.736;15.666;2023-03-21T04:25:33;98567.31;;;5.75;100.00
55217;BME280;41086;46.736;15.666;2023-03-21T04:28:03;98564.81;;;5.72;100.00
55217;BME280;41086;46.736;15.666;2023-03-21T04:30:43;98566.31;;;5.77;100.00
55217;BME280;41086;46.736;15.666;2023-03-21T04:33:27;98568.88;;;5.79;100.00
55217;BME280;41086;46.736;15.666;2023-03-21T04:35:55;98572.72;;;5.72;100.00
55217;BME280;41086;46.736;15.666;2023-03-21T04:38:28;98570.59;;;5.61;100.00
55217;BME280;41086;46.736;15.666;2023-03-21T04:41:00;98576.16;;;5.55;100.00
55217;BME280;41086;46.736;15.666;2023-03-21T04:43:28;98574.72;;;5.48;100.00
55217;BME280;41086;46.736;15.666;2023-03-21T04:45:56;98578.34;;;5.45;100.00
55217;BME280;41086;46.736;15.666;2023-03-21T04:48:23;98573.03;;;5.47;100.00
55217;BME280;41086;46.736;15.666;2023-03-21T04:50:50;98565.97;;;5.47;100.00
55217;BME280;41086;46.736;15.666;2023-03-21T04:53:17;98572.31;;;5.43;100.00
55217;BME280;41086;46.736;15.666;2023-03-21T04:55:44;98574.38;;;5.37;100.00
55217;BME280;41086;46.736;15.666;2023-03-21T04:58:11;98572.16;;;5.27;100.00
55217;BME280;41086;46.736;15.666;2023-03-21T05:00:38;98571.66;;;5.19;100.00
55217;BME280;41086;46.736;15.666;2023-03-21T05:03:06;98571.94;;;5.13;100.00
55217;BME280;41086;46.736;15.666;2023-03-21T05:05:41;98573.97;;;5.06;100.00
55217;BME280;41086;46.736;15.666;2023-03-21T05:08:08;98581.34;;;4.98;100.00
55217;BME280;41086;46.736;15.666;2023-03-21T05:10:34;98572.75;;;4.95;100.00
55217;BME280;41086;46.736;15.666;2023-03-21T05:13:01;98564.03;;;4.94;100.00
55217;BME280;41086;46.736;15.666;2023-03-21T05:15:28;98571.00;;;4.95;100.00
55217;BME280;41086;46.736;15.666;2023-03-21T05:17:55;98560.63;;;4.92;100.00
55217;BME280;41086;46.736;15.666;2023-03-21T05:20:24;98565.34;;;4.63;100.00
55217;BME280;41086;46.736;15.666;2023-03-21T05:22:51;98518.59;;;4.32;100.00
55217;BME280;41086;46.736;15.666;2023-03-21T05:25:18;98551.00;;;4.52;100.00
55217;BME280;41086;46.736;15.666;2023-03-21T05:28:25;98557.75;;;4.37;100.00
55217;BME280;41086;46.736;15.666;2023-03-21T05:30:58;98553.56;;;4.33;100.00
55217;BME280;41086;46.736;15.666;2023-03-21T05:33:25;98546.56;;;4.11;100.00
55217;BME280;41086;46.736;15.666;2023-03-21T05:35:52;98548.69;;;3.81;100.00
55217;BME280;41086;46.736;15.666;2023-03-21T05:38:19;98553.75;;;3.86;100.00
55217;BME280;41086;46.736;15.666;2023-03-21T05:40:50;98543.69;;;3.97;100.00
55217;BME280;41086;46.736;15.666;2023-03-21T05:43:17;98536.22;;;4.08;100.00
55217;BME280;41086;46.736;15.666;2023-03-21T05:45:45;98536.66;;;4.18;100.00
55217;BME280;41086;46.736;15.666;2023-03-21T05:48:15;98536.63;;;4.19;100.00
55217;BME280;41086;46.736;15.666;2023-03-21T05:51:03;98525.94;;;4.44;100.00
55217;BME280;41086;46.736;15.666;2023-03-21T05:53:30;98560.44;;;4.56;100.00
55217;BME280;41086;46.736;15.666;2023-03-21T05:55:57;98560.09;;;4.63;100.00
55217;BME280;41086;46.736;15.666;2023-03-21T05:58:46;98571.88;;;4.75;100.00
55217;BME280;41086;46.736;15.666;2023-03-21T06:01:13;98561.69;;;4.68;100.00
55217;BME280;41086;46.736;15.666;2023-03-21T06:03:47;98588.16;;;4.83;100.00
55217;BME280;41086;46.736;15.666;2023-03-21T06:06:16;98588.00;;;4.86;100.00
55217;BME280;41086;46.736;15.666;2023-03-21T06:09:02;98587.06;;;4.87;100.00
55217;BME280;41086;46.736;15.666;2023-03-21T06:11:32;98592.31;;;4.87;100.00
55217;BME280;41086;46.736;15.666;2023-03-21T06:14:29;98582.75;;;4.86;100.00
55217;BME280;41086;46.736;15.666;2023-03-21T06:17:22;98590.41;;;4.91;100.00
55217;BME280;41086;46.736;15.666;2023-03-21T06:19:55;98599.69;;;4.79;100.00
55217;BME280;41086;46.736;15.666;2023-03-21T06:22:27;98589.72;;;4.67;100.00
55217;BME280;41086;46.736;15.666;2023-03-21T06:24:54;98583.06;;;4.58;100.00
55217;BME280;41086;46.736;15.666;2023-03-21T06:27:21;98566.75;;;4.52;100.00
55217;BME280;41086;46.736;15.666;2023-03-21T06:29:51;98587.44;;;4.59;100.00
55217;BME280;41086;46.736;15.666;2023-03-21T06:32:19;98585.25;;;4.49;100.00
55217;BME280;41086;46.736;15.666;2023-03-21T06:34:49;98588.31;;;4.38;100.00
55217;BME280;41086;46.736;15.666;2023-03-21T06:37:18;98589.13;;;4.40;100.00
55217;BME280;41086;46.736;15.666;2023-03-21T06:39:45;98576.63;;;4.45;100.00
55217;BME280;41086;46.736;15.666;2023-03-21T06:42:12;98575.78;;;4.44;100.00
55217;BME280;41086;46.736;15.666;2023-03-21T06:44:40;98570.75;;;4.60;100.00
55217;BME280;41086;46.736;15.666;2023-03-21T06:47:11;98588.00;;;4.86;100.00
55217;BME280;41086;46.736;15.666;2023-03-21T06:49:40;98601.66;;;4.95;100.00
55217;BME280;41086;46.736;15.666;2023-03-21T06:52:11;98601.56;;;4.96;100.00
55217;BME280;41086;46.736;15.666;2023-03-21T06:54:38;98604.00;;;5.01;100.00
55217;BME280;41086;46.736;15.666;2023-03-21T06:57:10;98593.59;;;5.18;100.00
55217;BME280;41086;46.736;15.666;2023-03-21T06:59:39;98595.84;;;5.46;100.00
55217;BME280;41086;46.736;15.666;2023-03-21T07:02:13;98591.41;;;5.66;100.00
55217;BME280;41086;46.736;15.666;2023-03-21T07:04:46;98611.13;;;5.95;100.00
55217;BME280;41086;46.736;15.666;2023-03-21T07:07:18;98602.94;;;6.18;100.00
55217;BME280;41086;46.736;15.666;2023-03-21T07:09:45;98625.06;;;6.33;100.00
55217;BME280;41086;46.736;15.666;2023-03-21T07:12:12;98625.16;;;6.49;100.00
55217;BME280;41086;46.736;15.666;2023-03-21T07:14:57;98629.09;;;6.75;100.00
55217;BME280;41086;46.736;15.666;2023-03-21T07:17:24;98634.28;;;6.94;100.00
55217;BME280;41086;46.736;15.666;2023-03-21T07:19:51;98630.47;;;7.17;100.00
55217;BME280;41086;46.736;15.666;2023-03-21T07:22:18;98635.63;;;7.36;100.00
55217;BME280;41086;46.736;15.666;2023-03-21T07:24:45;98639.91;;;7.54;100.00
55217;BME280;41086;46.736;15.666;2023-03-21T07:27:37;98640.09;;;7.67;100.00
55217;BME280;41086;46.736;15.666;2023-03-21T07:30:08;98649.47;;;7.89;100.00
55217;BME280;41086;46.736;15.666;2023-03-21T07:32:35;98646.78;;;8.06;100.00
55217;BME280;41086;46.736;15.666;2023-03-21T07:35:05;98654.66;;;8.22;100.00
55217;BME280;41086;46.736;15.666;2023-03-21T07:37:32;98661.38;;;8.28;100.00
55217;BME280;41086;46.736;15.666;2023-03-21T07:39:59;98661.06;;;8.34;100.00
55217;BME280;41086;46.736;15.666;2023-03-21T07:42:25;98642.06;;;8.27;100.00
55217;BME280;41086;46.736;15.666;2023-03-21T07:44:58;98667.97;;;8.36;100.00
55217;BME280;41086;46.736;15.666;2023-03-21T07:47:31;98662.56;;;8.38;100.00
55217;BME280;41086;46.736;15.666;2023-03-21T07:49:58;98660.47;;;8.60;100.00
55217;BME280;41086;46.736;15.666;2023-03-21T07:52:27;98662.56;;;8.70;100.00
55217;BME280;41086;46.736;15.666;2023-03-21T07:54:53;98652.53;;;8.91;100.00
55217;BME280;41086;46.736;15.666;2023-03-21T07:57:20;98666.81;;;9.17;100.00
55217;BME280;41086;46.736;15.666;2023-03-21T07:59:47;98661.28;;;9.36;100.00
55217;BME280;41086;46.736;15.666;2023-03-21T08:02:15;98663.19;;;9.62;100.00
55217;BME280;41086;46.736;15.666;2023-03-21T08:04:42;98660.91;;;9.99;100.00
55217;BME280;41086;46.736;15.666;2023-03-21T08:07:10;98657.97;;;10.45;100.00
55217;BME280;41086;46.736;15.666;2023-03-21T08:09:38;98658.66;;;10.61;100.00
55217;BME280;41086;46.736;15.666;2023-03-21T08:12:05;98641.75;;;10.90;100.00
55217;BME280;41086;46.736;15.666;2023-03-21T08:14:34;98659.19;;;11.70;100.00
55217;BME280;41086;46.736;15.666;2023-03-21T08:17:03;98648.00;;;12.40;100.00
55217;BME280;41086;46.736;15.666;2023-03-21T08:19:30;98656.41;;;13.18;100.00
55217;BME280;41086;46.736;15.666;2023-03-21T08:21:57;98648.03;;;13.80;100.00
55217;BME280;41086;46.736;15.666;2023-03-21T08:24:27;98653.31;;;14.14;98.69
55217;BME280;41086;46.736;15.666;2023-03-21T08:26:55;98644.41;;;14.58;95.83
55217;BME280;41086;46.736;15.666;2023-03-21T08:29:22;98657.31;;;14.74;97.83
55217;BME280;41086;46.736;15.666;2023-03-21T08:31:50;98646.97;;;14.81;93.25
55217;BME280;41086;46.736;15.666;2023-03-21T08:34:23;98653.59;;;15.19;96.91
55217;BME280;41086;46.736;15.666;2023-03-21T08:36:49;98649.94;;;15.20;92.16
55217;BME280;41086;46.736;15.666;2023-03-21T08:39:16;98643.97;;;15.06;87.76
55217;BME280;41086;46.736;15.666;2023-03-21T08:41:43;98652.06;;;14.40;82.77
55217;BME280;41086;46.736;15.666;2023-03-21T08:44:10;98648.25;;;14.66;81.15
55217;BME280;41086;46.736;15.666;2023-03-21T08:46:36;98647.00;;;14.26;83.73
55217;BME280;41086;46.736;15.666;2023-03-21T08:49:03;98644.19;;;14.39;84.13
55217;BME280;41086;46.736;15.666;2023-03-21T08:51:30;98630.69;;;14.52;83.97
55217;BME280;41086;46.736;15.666;2023-03-21T08:53:59;98647.28;;;14.99;84.33
55217;BME280;41086;46.736;15.666;2023-03-21T08:56:26;98647.06;;;15.12;83.26
55217;BME280;41086;46.736;15.666;2023-03-21T08:58:52;98644.41;;;15.33;85.50
55217;BME280;41086;46.736;15.666;2023-03-21T09:01:19;98643.09;;;15.27;74.78
55217;BME280;41086;46.736;15.666;2023-03-21T09:03:46;98640.75;;;15.34;83.08
55217;BME280;41086;46.736;15.666;2023-03-21T09:06:13;98637.28;;;15.64;80.22
55217;BME280;41086;46.736;15.666;2023-03-21T09:08:40;98643.69;;;15.82;80.25
55217;BME280;41086;46.736;15.666;2023-03-21T09:11:13;98639.56;;;15.99;70.21
55217;BME280;41086;46.736;15.666;2023-03-21T09:13:39;98629.19;;;16.25;63.90
55217;BME280;41086;46.736;15.666;2023-03-21T09:16:06;98640.63;;;16.47;66.34
55217;BME280;41086;46.736;15.666;2023-03-21T09:18:34;98635.50;;;16.94;65.89
55217;BME280;41086;46.736;15.666;2023-03-21T09:21:16;98635.38;;;17.62;62.30
55217;BME280;41086;46.736;15.666;2023-03-21T09:23:43;98637.63;;;18.04;59.25
55217;BME280;41086;46.736;15.666;2023-03-21T09:26:10;98639.16;;;18.52;55.08
55217;BME280;41086;46.736;15.666;2023-03-21T09:28:38;98634.91;;;18.77;52.30
55217;BME280;41086;46.736;15.666;2023-03-21T09:31:06;98630.22;;;18.97;54.58
55217;BME280;41086;46.736;15.666;2023-03-21T09:33:37;98635.69;;;19.31;50.92
55217;BME280;41086;46.736;15.666;2023-03-21T09:36:07;98629.31;;;19.76;47.56
55217;BME280;41086;46.736;15.666;2023-03-21T09:38:40;98625.59;;;19.25;44.99
55217;BME280;41086;46.736;15.666;2023-03-21T09:41:16;98626.34;;;19.35;46.31
55217;BME280;41086;46.736;15.666;2023-03-21T09:51:51;98607.78;;;19.50;41.57
55217;BME280;41086;46.736;15.666;2023-03-21T09:54:24;98608.56;;;20.03;38.72
55217;BME280;41086;46.736;15.666;2023-03-21T09:56:55;98599.03;;;20.25;37.94
55217;BME280;41086;46.736;15.666;2023-03-21T09:59:30;98592.28;;;20.12;37.54
55217;BME280;41086;46.736;15.666;2023-03-21T10:01:59;98596.94;;;18.90;38.35
55217;BME280;41086;46.736;15.666;2023-03-21T10:04:27;98604.34;;;19.40;39.95
55217;BME280;41086;46.736;15.666;2023-03-21T10:07:00;98606.09;;;19.75;38.66
55217;BME280;41086;46.736;15.666;2023-03-21T10:09:29;98596.44;;;20.49;38.11
55217;BME280;41086;46.736;15.666;2023-03-21T10:12:02;98595.97;;;20.87;35.65
55217;BME280;41086;46.736;15.666;2023-03-21T10:14:39;98584.88;;;20.81;35.55
55217;BME280;41086;46.736;15.666;2023-03-21T10:17:28;98591.31;;;20.22;33.90
55217;BME280;41086;46.736;15.666;2023-03-21T10:20:18;98584.41;;;20.27;33.82
55217;BME280;41086;46.736;15.666;2023-03-21T10:22:48;98586.44;;;20.17;34.30
55217;BME280;41086;46.736;15.666;2023-03-21T10:25:20;98579.91;;;20.28;34.23
55217;BME280;41086;46.736;15.666;2023-03-21T10:27:50;98580.44;;;20.40;34.36
55217;BME280;41086;46.736;15.666;2023-03-21T10:30:28;98574.53;;;20.36;33.64
55217;BME280;41086;46.736;15.666;2023-03-21T10:33:00;98584.34;;;20.53;35.03
55217;BME280;41086;46.736;15.666;2023-03-21T10:35:32;98578.97;;;20.94;34.18
55217;BME280;41086;46.736;15.666;2023-03-21T10:38:04;98586.69;;;21.46;35.17
55217;BME280;41086;46.736;15.666;2023-03-21T10:40:31;98573.34;;;22.01;30.97
55217;BME280;41086;46.736;15.666;2023-03-21T10:45:54;98551.03;;;22.15;33.03
55217;BME280;41086;46.736;15.666;2023-03-21T10:48:22;98554.34;;;21.94;31.52
55217;BME280;41086;46.736;15.666;2023-03-21T10:50:52;98562.44;;;21.38;31.09
55217;BME280;41086;46.736;15.666;2023-03-21T10:55:57;98556.06;;;21.15;30.36
55217;BME280;41086;46.736;15.666;2023-03-21T10:58:28;98554.94;;;20.85;30.49
55217;BME280;41086;46.736;15.666;2023-03-21T11:00:58;98548.88;;;20.66;32.02
55217;BME280;41086;46.736;15.666;2023-03-21T11:03:30;98551.28;;;20.19;31.25
55217;BME280;41086;46.736;15.666;2023-03-21T11:06:06;98537.03;;;19.84;32.05
55217;BME280;41086;46.736;15.666;2023-03-21T11:08:45;98541.63;;;20.58;32.91
55217;BME280;41086;46.736;15.666;2023-03-21T11:11:21;98527.63;;;21.68;34.35
55217;BME280;41086;46.736;15.666;2023-03-21T11:14:00;98538.22;;;22.63;29.43
55217;BME280;41086;46.736;15.666;2023-03-21T11:16:38;98532.34;;;23.50;30.14
55217;BME280;41086;46.736;15.666;2023-03-21T11:19:28;98527.06;;;23.86;28.45
55217;BME280;41086;46.736;15.666;2023-03-21T11:22:03;98525.88;;;24.47;28.70
55217;BME280;41086;46.736;15.666;2023-03-21T11:24:31;98526.66;;;25.12;28.02
55217;BME280;41086;46.736;15.666;2023-03-21T11:26:59;98516.22;;;25.37;27.25
55217;BME280;41086;46.736;15.666;2023-03-21T11:29:35;98515.06;;;24.96;26.66
55217;BME280;41086;46.736;15.666;2023-03-21T11:32:15;98491.31;;;24.49;26.97
55217;BME280;41086;46.736;15.666;2023-03-21T11:35:12;98504.47;;;24.52;28.74
55217;BME280;41086;46.736;15.666;2023-03-21T11:40:27;98509.28;;;24.78;25.82
55217;BME280;41086;46.736;15.666;2023-03-21T11:42:59;98492.59;;;24.74;27.64
55217;BME280;41086;46.736;15.666;2023-03-21T11:45:32;98491.50;;;24.69;29.08
55217;BME280;41086;46.736;15.666;2023-03-21T11:48:04;98485.66;;;23.56;27.99
55217;BME280;41086;46.736;15.666;2023-03-21T11:50:36;98480.91;;;23.73;28.65
55217;BME280;41086;46.736;15.666;2023-03-21T11:53:19;98478.91;;;24.40;28.29
55217;BME280;41086;46.736;15.666;2023-03-21T11:59:11;98475.03;;;24.27;29.83
55217;BME280;41086;46.736;15.666;2023-03-21T12:04:39;98455.38;;;24.19;28.74
55217;BME280;41086;46.736;15.666;2023-03-21T12:12:40;98456.78;;;24.15;28.75
55217;BME280;41086;46.736;15.666;2023-03-21T12:15:23;98444.75;;;23.66;29.82
55217;BME280;41086;46.736;15.666;2023-03-21T12:20:46;98448.28;;;24.89;27.51
55217;BME280;41086;46.736;15.666;2023-03-21T12:23:17;98444.03;;;24.30;27.99
55217;BME280;41086;46.736;15.666;2023-03-21T12:25:55;98433.56;;;23.69;32.04
55217;BME280;41086;46.736;15.666;2023-03-21T12:28:59;98425.28;;;23.56;29.75
55217;BME280;41086;46.736;15.666;2023-03-21T12:31:59;98433.84;;;22.32;30.43
55217;BME280;41086;46.736;15.666;2023-03-21T12:45:49;98406.94;;;22.77;32.92
55217;BME280;41086;46.736;15.666;2023-03-21T12:48:29;98406.41;;;23.11;29.85
55217;BME280;41086;46.736;15.666;2023-03-21T12:51:01;98385.16;;;23.23;32.58
55217;BME280;41086;46.736;15.666;2023-03-21T12:53:55;98396.84;;;23.45;31.82
55217;BME280;41086;46.736;15.666;2023-03-21T12:56:31;98404.56;;;23.63;30.75
55217;BME280;41086;46.736;15.666;2023-03-21T12:59:26;98395.34;;;23.94;30.62
55217;BME280;41086;46.736;15.666;2023-03-21T13:01:54;98380.13;;;23.71;28.89
55217;BME280;41086;46.736;15.666;2023-03-21T13:04:56;98381.81;;;23.57;30.69
55217;BME280;41086;46.736;15.666;2023-03-21T13:07:28;98377.25;;;22.39;31.31
55217;BME280;41086;46.736;15.666;2023-03-21T13:09:57;98381.22;;;22.66;31.87
55217;BME280;41086;46.736;15.666;2023-03-21T13:20:51;98357.63;;;23.71;29.90
55217;BME280;41086;46.736;15.666;2023-03-21T13:23:24;98360.66;;;24.25;30.88
55217;BME280;41086;46.736;15.666;2023-03-21T13:25:56;98360.34;;;23.71;29.53
55217;BME280;41086;46.736;15.666;2023-03-21T13:28:28;98356.47;;;24.23;28.81
55217;BME280;41086;46.736;15.666;2023-03-21T13:31:21;98353.69;;;24.59;29.77
55217;BME280;41086;46.736;15.666;2023-03-21T13:33:53;98337.81;;;22.83;30.19
55217;BME280;41086;46.736;15.666;2023-03-21T13:36:29;98345.66;;;22.77;31.85
55217;BME280;41086;46.736;15.666;2023-03-21T13:39:02;98349.84;;;23.10;30.67
55217;BME280;41086;46.736;15.666;2023-03-21T13:41:34;98345.25;;;23.40;30.84
55217;BME280;41086;46.736;15.666;2023-03-21T13:59:37;98322.25;;;22.40;31.40
55217;BME280;41086;46.736;15.666;2023-03-21T14:02:33;98317.69;;;22.41;31.80
55217;BME280;41086;46.736;15.666;2023-03-21T14:05:16;98312.50;;;21.78;32.24
55217;BME280;41086;46.736;15.666;2023-03-21T14:07:46;98313.31;;;21.24;31.65
55217;BME280;41086;46.736;15.666;2023-03-21T14:12:45;98307.13;;;21.55;33.73
55217;BME280;41086;46.736;15.666;2023-03-21T14:15:37;98300.03;;;20.92;32.04
55217;BME280;41086;46.736;15.666;2023-03-21T14:18:18;98299.41;;;20.73;33.93
55217;BME280;41086;46.736;15.666;2023-03-21T14:21:00;98298.44;;;21.37;33.75
55217;BME280;41086;46.736;15.666;2023-03-21T14:23:28;98299.81;;;21.64;33.54
55217;BME280;41086;46.736;15.666;2023-03-21T14:25:55;98295.59;;;22.22;32.66
55217;BME280;41086;46.736;15.666;2023-03-21T14:28:26;98282.50;;;22.49;31.86
55217;BME280;41086;46.736;15.666;2023-03-21T14:30:57;98289.22;;;22.53;31.55
55217;BME280;41086;46.736;15.666;2023-03-21T14:33:32;98287.16;;;22.55;31.34
55217;BME280;41086;46.736;15.666;2023-03-21T14:36:05;98283.69;;;23.06;32.35
55217;BME280;41086;46.736;15.666;2023-03-21T14:38:36;98280.69;;;23.37;31.17
55217;BME280;41086;46.736;15.666;2023-03-21T14:41:04;98286.56;;;22.74;32.66
55217;BME280;41086;46.736;15.666;2023-03-21T14:43:31;98284.72;;;22.60;32.63
55217;BME280;41086;46.736;15.666;2023-03-21T14:46:00;98279.59;;;22.35;32.37
55217;BME280;41086;46.736;15.666;2023-03-21T14:48:32;98281.47;;;21.97;32.42
55217;BME280;41086;46.736;15.666;2023-03-21T14:51:08;98276.75;;;21.76;33.35
55217;BME280;41086;46.736;15.666;2023-03-21T14:53:39;98269.13;;;22.03;33.32